Time;durP1;ratioP1;P1;durP2;ratioP2;P2;SDS_P1;SDS_P2;PMS_P1;PMS_P2;Temp;Humidity;BMP_temperature;BMP_pressure;BME280_temperature;BME280_humidity;BME280_pressure;Samples;Min_cycle;Max_cycle;Signal;HPM_P1;HPM_P2
2023/01/08 00:00:55;;;;;;;2.65;2.20;;;;;;;7.13;100.00;100277.78;5003068;28;20334;-48
2023/01/08 00:03:21;;;;;;;2.20;2.00;;;;;;;7.11;100.00;100261.84;4998463;28;20209;-46
2023/01/08 00:05:47;;;;;;;2.38;2.17;;;;;;;7.05;100.00;100266.50;5002002;28;20207;-47
2023/01/08 00:08:13;;;;;;;2.50;2.13;;;;;;;7.06;100.00;100257.56;5003810;28;20605;-46
2023/01/08 00:10:38;;;;;;;3.60;1.95;;;;;;;7.05;100.00;100250.50;5000956;28;20300;-47
2023/01/08 00:13:06;;;;;;;2.25;2.05;;;;;;;7.03;100.00;100261.22;5000909;28;20182;-47
2023/01/08 00:15:34;;;;;;;2.30;2.10;;;;;;;7.04;100.00;100256.75;4998125;28;20200;-49
2023/01/08 00:18:00;;;;;;;2.50;2.30;;;;;;;7.04;100.00;100248.75;4999298;28;20240;-49
2023/01/08 00:20:25;;;;;;;2.35;2.15;;;;;;;7.07;100.00;100254.00;4999684;28;20193;-48
2023/01/08 00:22:51;;;;;;;2.30;2.10;;;;;;;7.09;100.00;100249.50;4999393;28;20203;-46
2023/01/08 00:25:17;;;;;;;2.03;1.92;;;;;;;7.08;100.00;100247.72;5000819;28;20334;-46
2023/01/08 00:27:43;;;;;;;4.80;2.20;;;;;;;7.08;100.00;100231.75;4999624;28;20194;-47
2023/01/08 00:30:10;;;;;;;2.60;2.35;;;;;;;7.13;100.00;100232.50;5008776;28;20667;-47
2023/01/08 00:32:35;;;;;;;2.25;2.05;;;;;;;7.15;100.00;100233.28;5002330;28;20179;-44
2023/01/08 00:35:01;;;;;;;2.90;1.90;;;;;;;7.14;100.00;100243.06;5000568;28;20228;-47
2023/01/08 00:37:27;;;;;;;2.45;2.25;;;;;;;7.20;100.00;100234.88;5003881;28;20654;-47
2023/01/08 00:39:53;;;;;;;2.15;1.92;;;;;;;7.19;100.00;100233.16;4999642;28;20649;-47
2023/01/08 00:42:18;;;;;;;2.50;2.30;;;;;;;7.21;100.00;100228.66;5006841;28;20213;-47
2023/01/08 00:44:44;;;;;;;2.38;2.20;;;;;;;7.24;100.00;100225.00;4999557;28;20624;-46
2023/01/08 00:47:09;;;;;;;2.22;2.03;;;;;;;7.26;100.00;100217.81;4998779;28;20197;-47
2023/01/08 00:49:35;;;;;;;3.50;2.50;;;;;;;7.29;100.00;100211.50;4995802;28;20260;-47
2023/01/08 00:52:00;;;;;;;2.20;2.05;;;;;;;7.29;100.00;100206.19;5000344;28;20713;-46
2023/01/08 00:54:26;;;;;;;2.80;2.13;;;;;;;7.28;100.00;100205.31;4993893;28;20213;-47
2023/01/08 00:56:53;;;;;;;2.67;2.00;;;;;;;7.29;100.00;100201.72;4998370;28;20536;-47
2023/01/08 00:59:19;;;;;;;3.38;2.22;;;;;;;7.28;100.00;100209.75;5001160;28;20243;-47
2023/01/08 01:01:45;;;;;;;1.98;1.80;;;;;;;7.29;100.00;100204.38;4996906;28;20181;-46
2023/01/08 01:04:10;;;;;;;2.40;2.20;;;;;;;7.28;100.00;100200.00;4997885;28;20212;-46
2023/01/08 01:06:35;;;;;;;3.03;2.40;;;;;;;7.33;100.00;100202.50;4999516;28;20235;-46
2023/01/08 01:09:01;;;;;;;3.45;2.60;;;;;;;7.30;100.00;100206.09;5005285;28;20593;-48
2023/01/08 01:11:27;;;;;;;2.80;2.10;;;;;;;7.35;100.00;100198.84;4998315;28;20716;-48
2023/01/08 01:13:56;;;;;;;2.72;2.03;;;;;;;7.31;100.00;100204.34;5002494;28;20189;-46
2023/01/08 01:16:22;;;;;;;2.17;2.00;;;;;;;7.30;100.00;100197.25;4996532;28;20259;-46
2023/01/08 01:18:48;;;;;;;2.28;2.08;;;;;;;7.32;100.00;100188.28;4999604;28;20199;-46
2023/01/08 01:21:30;;;;;;;4.80;2.30;;;;;;;7.32;100.00;100187.41;4997293;28;20206;-48
2023/01/08 01:23:58;;;;;;;3.97;2.40;;;;;;;7.34;100.00;100182.91;5002274;28;20263;-46
2023/01/08 01:26:25;;;;;;;7.53;2.45;;;;;;;7.35;100.00;100166.88;5000410;28;20265;-47
2023/01/08 01:28:52;;;;;;;2.72;2.28;;;;;;;7.33;100.00;100171.38;5002787;28;20543;-46
2023/01/08 01:31:19;;;;;;;2.97;2.33;;;;;;;7.34;100.00;100173.09;4998902;28;20197;-46
2023/01/08 01:33:45;;;;;;;2.13;2.00;;;;;;;7.36;100.00;100173.91;4994435;28;20197;-46
2023/01/08 01:36:12;;;;;;;3.03;2.40;;;;;;;7.36;100.00;100179.25;4994738;28;20236;-46
2023/01/08 01:38:37;;;;;;;2.50;2.30;;;;;;;7.37;100.00;100178.34;4999564;28;20238;-45
2023/01/08 01:41:03;;;;;;;2.85;2.60;;;;;;;7.38;100.00;100173.88;4993077;28;20169;-47
2023/01/08 01:43:40;;;;;;;2.42;2.25;;;;;;;7.37;100.00;100166.81;5006836;28;20216;-46
2023/01/08 01:46:20;;;;;;;2.50;2.30;;;;;;;7.39;100.00;100165.84;4999603;28;20205;-47
2023/01/08 01:48:48;;;;;;;2.50;2.30;;;;;;;7.34;100.00;100161.59;4997903;28;20561;-46
2023/01/08 01:51:14;;;;;;;2.38;2.17;;;;;;;7.34;100.00;100161.59;4999176;28;20181;-47
2023/01/08 01:53:40;;;;;;;2.45;2.30;;;;;;;7.35;100.00;100155.34;4998459;28;20234;-46
2023/01/08 01:56:07;;;;;;;5.13;2.65;;;;;;;7.43;100.00;100161.25;4995563;28;20606;-46
2023/01/08 01:58:33;;;;;;;3.42;2.25;;;;;;;7.36;100.00;100155.25;4998168;28;20567;-46
2023/01/08 02:01:05;;;;;;;2.72;2.47;;;;;;;7.39;100.00;100148.94;4999280;28;20177;-46
2023/01/08 02:03:38;;;;;;;3.00;2.80;;;;;;;7.38;100.00;100148.09;5011044;28;20865;-47
2023/01/08 02:06:32;;;;;;;2.70;2.20;;;;;;;7.38;100.00;100150.75;4999178;28;20563;-45
2023/01/08 02:09:19;;;;;;;2.70;2.50;;;;;;;7.39;100.00;100155.19;4996862;28;20607;-45
2023/01/08 02:12:16;;;;;;;2.70;2.50;;;;;;;7.37;100.00;100164.16;4999990;28;20189;-48
2023/01/08 02:14:56;;;;;;;3.08;2.78;;;;;;;7.40;100.00;100156.03;5001990;28;20212;-45
2023/01/08 02:17:37;;;;;;;4.32;2.55;;;;;;;7.40;100.00;100150.72;4991908;28;20168;-46
2023/01/08 02:20:08;;;;;;;2.60;2.10;;;;;;;7.38;100.00;100152.56;5000449;28;20280;-47
2023/01/08 02:22:46;;;;;;;3.88;2.70;;;;;;;7.39;100.00;100147.19;4994398;28;20204;-47
2023/01/08 02:25:33;;;;;;;3.10;2.35;;;;;;;7.38;100.00;100158.75;4995368;28;20641;-46
2023/01/08 02:28:00;;;;;;;2.88;2.67;;;;;;;7.40;100.00;100148.91;4999064;28;20271;-46
2023/01/08 02:30:26;;;;;;;2.60;2.17;;;;;;;7.41;100.00;100140.00;5005842;28;20189;-45
2023/01/08 02:32:51;;;;;;;2.80;2.47;;;;;;;7.39;100.00;100152.50;4998604;28;20185;-45
2023/01/08 02:35:17;;;;;;;3.67;2.60;;;;;;;7.36;100.00;100149.94;4997729;28;20208;-46
2023/01/08 02:37:43;;;;;;;2.60;2.40;;;;;;;7.41;100.00;100142.66;4999921;28;20189;-47
2023/01/08 02:40:26;;;;;;;3.03;2.13;;;;;;;7.51;100.00;100131.66;4998169;28;20280;-46
2023/01/08 02:42:59;;;;;;;2.78;2.58;;;;;;;7.43;100.00;100127.50;4996293;28;20213;-46
2023/01/08 02:45:45;;;;;;;2.80;2.58;;;;;;;7.41;100.00;100136.44;4997233;28;20216;-45
2023/01/08 02:48:12;;;;;;;3.05;2.63;;;;;;;7.42;100.00;100131.06;4995685;28;20192;-47
2023/01/08 02:51:01;;;;;;;3.72;2.20;;;;;;;7.42;100.00;100135.53;4999446;28;20193;-46
2023/01/08 02:53:34;;;;;;;3.63;2.83;;;;;;;7.43;100.00;100130.16;4997764;28;20536;-46
2023/01/08 02:56:07;;;;;;;5.65;2.45;;;;;;;7.43;100.00;100135.50;4997592;28;20267;-48
2023/01/08 02:58:36;;;;;;;3.13;2.60;;;;;;;7.42;100.00;100136.41;4998794;28;20497;-48
2023/01/08 03:01:05;;;;;;;3.40;2.95;;;;;;;7.44;100.00;100120.34;4998304;28;20195;-47
2023/01/08 03:03:33;;;;;;;2.80;2.60;;;;;;;7.49;100.00;100106.84;5001091;28;20708;-47
2023/01/08 03:06:03;;;;;;;4.28;2.80;;;;;;;7.50;100.00;100122.81;4996528;28;20590;-47
2023/01/08 03:08:32;;;;;;;3.00;2.70;;;;;;;7.51;100.00;100129.00;4992762;28;20189;-47
2023/01/08 03:11:07;;;;;;;2.70;2.50;;;;;;;7.49;100.00;100129.03;4996295;28;20185;-47
2023/01/08 03:13:40;;;;;;;2.70;2.50;;;;;;;7.50;100.00;100119.25;5021011;28;20207;-46
2023/01/08 03:16:13;;;;;;;3.72;2.83;;;;;;;7.50;100.00;100103.25;5005980;28;20298;-47
2023/01/08 03:18:45;;;;;;;3.03;2.80;;;;;;;7.51;100.00;100116.53;5003643;28;20181;-47
2023/01/08 03:21:12;;;;;;;2.78;2.38;;;;;;;7.52;100.00;100106.72;5004553;28;20182;-47
2023/01/08 03:23:40;;;;;;;2.75;2.55;;;;;;;7.50;100.00;100108.59;5005625;28;20217;-47
2023/01/08 03:26:06;;;;;;;2.90;2.70;;;;;;;7.48;100.00;100107.75;4997422;28;20335;-46
2023/01/08 03:28:40;;;;;;;3.55;2.80;;;;;;;7.42;100.00;100095.56;4998940;28;20737;-45
2023/01/08 03:31:07;;;;;;;3.70;2.88;;;;;;;7.40;100.00;100103.59;4999155;28;20192;-46
2023/01/08 03:33:34;;;;;;;3.13;2.60;;;;;;;7.35;100.00;100102.06;5000838;28;20359;-46
2023/01/08 03:36:03;;;;;;;3.10;2.83;;;;;;;7.35;100.00;100097.59;5000345;28;20181;-45
2023/01/08 03:38:39;;;;;;;3.08;2.80;;;;;;;7.32;100.00;100103.00;5001487;28;20185;-46
2023/01/08 03:41:12;;;;;;;2.97;2.72;;;;;;;7.35;100.00;100115.38;4999436;28;20242;-46
2023/01/08 03:43:38;;;;;;;7.70;2.80;;;;;;;7.32;100.00;100116.31;5003386;28;20295;-46
2023/01/08 03:46:12;;;;;;;3.78;2.70;;;;;;;7.31;100.00;100119.94;5000590;28;20276;-46
2023/01/08 03:48:39;;;;;;;3.17;2.85;;;;;;;7.22;100.00;100112.28;5005365;28;20226;-46
2023/01/08 03:51:09;;;;;;;3.08;2.78;;;;;;;7.20;100.00;100104.34;5007852;28;20189;-47
2023/01/08 03:53:35;;;;;;;3.03;2.72;;;;;;;7.17;100.00;100112.44;5001487;28;20260;-47
2023/01/08 03:56:01;;;;;;;3.88;3.05;;;;;;;7.11;100.00;100112.66;4996125;28;20193;-47
2023/01/08 03:58:26;;;;;;;3.28;2.90;;;;;;;7.07;100.00;100116.34;5004056;28;20185;-46
2023/01/08 04:00:52;;;;;;;3.50;3.20;;;;;;;7.01;100.00;100124.56;5007546;28;20265;-42
2023/01/08 04:03:18;;;;;;;3.38;3.08;;;;;;;7.02;100.00;100120.97;5002257;28;20284;-47
2023/01/08 04:05:44;;;;;;;5.10;3.22;;;;;;;7.05;100.00;100135.97;5001968;28;20207;-46
2023/01/08 04:08:09;;;;;;;4.22;3.17;;;;;;;7.08;100.00;100133.19;5001716;28;20218;-44
2023/01/08 04:10:35;;;;;;;3.08;2.85;;;;;;;7.09;100.00;100117.16;5009177;28;20189;-45
2023/01/08 04:13:00;;;;;;;3.13;2.88;;;;;;;7.10;100.00;100118.03;5002361;28;20220;-47
2023/01/08 04:15:26;;;;;;;4.00;3.50;;;;;;;7.05;100.00;100125.31;4998090;28;20637;-45
2023/01/08 04:17:52;;;;;;;3.47;3.17;;;;;;;7.00;100.00;100126.34;5001517;28;20198;-47
2023/01/08 04:20:18;;;;;;;3.17;2.78;;;;;;;7.01;100.00;100122.75;5000107;28;20204;-45
2023/01/08 04:22:43;;;;;;;3.78;3.30;;;;;;;7.03;100.00;100116.50;5001270;28;20291;-46
2023/01/08 04:25:09;;;;;;;4.60;3.30;;;;;;;6.99;100.00;100116.59;5011207;28;20237;-46
2023/01/08 04:27:35;;;;;;;3.70;3.22;;;;;;;6.98;100.00;100116.69;4997989;28;20859;-47
2023/01/08 04:30:00;;;;;;;5.18;3.08;;;;;;;6.97;100.00;100102.47;4999417;28;20263;-47
2023/01/08 04:32:26;;;;;;;4.03;3.63;;;;;;;7.00;100.00;100093.53;5001036;28;20189;-48
2023/01/08 04:34:51;;;;;;;3.67;3.38;;;;;;;7.04;100.00;100107.59;5010154;28;20244;-49
2023/01/08 04:37:17;;;;;;;3.75;3.45;;;;;;;7.05;100.00;100102.22;5000505;28;20618;-47
2023/01/08 04:39:42;;;;;;;3.60;3.30;;;;;;;7.02;100.00;100089.03;4997185;28;20182;-47
2023/01/08 04:42:08;;;;;;;4.57;3.90;;;;;;;6.98;100.00;100098.03;5006093;28;20990;-46
2023/01/08 04:44:33;;;;;;;4.05;3.50;;;;;;;6.99;100.00;100095.28;4997261;28;20216;-48
2023/01/08 04:46:59;;;;;;;4.57;3.38;;;;;;;6.98;100.00;100093.56;4998013;28;20185;-46
2023/01/08 04:49:24;;;;;;;3.47;3.05;;;;;;;6.93;100.00;100095.53;4997724;28;20220;-46
2023/01/08 04:51:50;;;;;;;4.07;3.33;;;;;;;6.94;100.00;100083.94;5003465;28;20177;-46
2023/01/08 04:54:15;;;;;;;3.53;3.15;;;;;;;6.94;100.00;100080.44;4999041;28;20782;-47
2023/01/08 04:56:41;;;;;;;3.75;3.13;;;;;;;6.93;100.00;100079.56;4999363;28;20192;-47
2023/01/08 04:59:06;;;;;;;3.65;3.35;;;;;;;6.92;100.00;100080.47;4998180;28;20208;-47
2023/01/08 05:01:32;;;;;;;3.95;3.42;;;;;;;6.96;100.00;100075.91;4998433;28;20192;-46
2023/01/08 05:04:03;;;;;;;3.97;3.58;;;;;;;6.97;100.00;100062.53;4997792;28;20272;-48
2023/01/08 05:06:30;;;;;;;7.15;3.50;;;;;;;6.93;100.00;100068.00;4998935;28;20680;-47
2023/01/08 05:08:56;;;;;;;3.53;3.13;;;;;;;6.97;100.00;100081.16;4997564;28;20247;-47
2023/01/08 05:11:22;;;;;;;4.22;3.30;;;;;;;6.97;100.00;100073.19;5000377;28;20200;-47
2023/01/08 05:13:51;;;;;;;3.90;3.47;;;;;;;7.00;100.00;100073.09;4998738;28;20200;-47
2023/01/08 05:16:17;;;;;;;3.28;2.97;;;;;;;7.00;100.00;100073.09;4999014;28;20247;-47
2023/01/08 05:18:44;;;;;;;3.65;3.35;;;;;;;7.08;100.00;100066.59;5003008;28;20224;-47
2023/01/08 05:21:10;;;;;;;5.43;3.67;;;;;;;7.05;100.00;100072.06;5003087;28;20662;-47
2023/01/08 05:23:36;;;;;;;3.70;3.40;;;;;;;7.00;100.00;100065.09;5000008;28;20308;-47
2023/01/08 05:26:03;;;;;;;5.13;3.60;;;;;;;7.10;100.00;100072.75;5003446;28;20280;-46
2023/01/08 05:28:29;;;;;;;3.60;3.30;;;;;;;7.06;100.00;100074.63;4997421;28;20189;-47
2023/01/08 05:30:56;;;;;;;5.88;3.50;;;;;;;7.07;100.00;100062.22;4996003;28;20216;-47
2023/01/08 05:33:22;;;;;;;4.75;3.30;;;;;;;7.10;100.00;100075.41;4998469;28;20176;-47
2023/01/08 05:35:48;;;;;;;3.97;3.55;;;;;;;7.07;100.00;100068.41;5007473;28;20223;-46
2023/01/08 05:38:14;;;;;;;4.68;3.70;;;;;;;7.04;100.00;100067.63;4998493;28;20208;-48
2023/01/08 05:40:39;;;;;;;3.88;3.50;;;;;;;7.02;100.00;100062.38;4998620;28;20189;-47
2023/01/08 05:43:05;;;;;;;3.78;3.40;;;;;;;7.00;100.00;100070.41;5000283;28;20646;-47
2023/01/08 05:45:32;;;;;;;3.60;3.30;;;;;;;7.05;100.00;100066.72;4999927;28;20216;-47
2023/01/08 05:47:57;;;;;;;5.90;3.35;;;;;;;6.98;100.00;100072.28;4998015;28;20217;-47
2023/01/08 05:50:23;;;;;;;3.72;3.42;;;;;;;6.90;100.00;100076.13;4998289;28;20224;-48
2023/01/08 05:52:48;;;;;;;3.55;3.25;;;;;;;6.89;100.00;100069.94;4997463;28;20599;-47
2023/01/08 05:55:14;;;;;;;4.07;3.08;;;;;;;6.89;100.00;100053.97;4995853;28;20216;-48
2023/01/08 05:57:40;;;;;;;4.25;3.30;;;;;;;6.86;100.00;100063.84;4998588;28;20187;-45
2023/01/08 06:00:07;;;;;;;6.18;3.45;;;;;;;6.83;100.00;100067.50;4999287;28;20206;-47
2023/01/08 06:02:37;;;;;;;3.70;3.40;;;;;;;6.85;100.00;100068.31;4999785;28;20217;-47
2023/01/08 06:05:03;;;;;;;3.40;3.10;;;;;;;6.87;100.00;100063.78;4999333;28;20310;-47
2023/01/08 06:07:29;;;;;;;3.92;3.53;;;;;;;6.80;100.00;100059.63;4997697;28;20679;-47
2023/01/08 06:09:54;;;;;;;3.97;3.55;;;;;;;6.77;100.00;100059.72;4999301;28;20185;-46
2023/01/08 06:12:20;;;;;;;4.30;3.90;;;;;;;6.81;100.00;100064.88;5002397;28;20194;-47
2023/01/08 06:14:45;;;;;;;4.68;3.85;;;;;;;6.87;100.00;100058.47;5001396;28;20213;-48
2023/01/08 06:17:11;;;;;;;3.80;3.47;;;;;;;6.88;100.00;100062.84;4995981;28;20209;-46
2023/01/08 06:19:38;;;;;;;4.07;3.78;;;;;;;6.86;100.00;100066.50;4998271;28;20789;-48
2023/01/08 06:22:04;;;;;;;4.32;3.58;;;;;;;6.75;100.00;100064.22;4996030;28;20199;-47
2023/01/08 06:24:30;;;;;;;4.00;3.60;;;;;;;6.73;100.00;100068.72;4997523;28;20223;-47
2023/01/08 06:26:55;;;;;;;4.35;3.28;;;;;;;6.76;100.00;100069.50;4998960;28;20176;-48
2023/01/08 06:29:21;;;;;;;4.32;3.92;;;;;;;6.77;100.00;100078.34;4998632;28;20184;-47
2023/01/08 06:31:47;;;;;;;5.22;3.97;;;;;;;6.76;100.00;100068.63;5000233;28;20272;-47
2023/01/08 06:34:12;;;;;;;4.88;3.60;;;;;;;6.79;100.00;100065.84;4998196;28;20292;-46
2023/01/08 06:36:38;;;;;;;4.53;3.58;;;;;;;6.72;100.00;100057.22;4996583;28;20197;-47
2023/01/08 06:39:06;;;;;;;3.88;3.38;;;;;;;6.66;100.00;100060.06;4997622;28;20193;-47
2023/01/08 06:41:32;;;;;;;4.15;3.75;;;;;;;6.62;100.00;100062.91;4997255;28;20194;-47
2023/01/08 06:43:58;;;;;;;4.20;3.80;;;;;;;6.64;100.00;100051.28;4996924;28;20213;-47
2023/01/08 06:46:23;;;;;;;4.55;4.07;;;;;;;6.66;100.00;100065.41;4999072;28;20189;-48
2023/01/08 06:48:48;;;;;;;4.75;3.83;;;;;;;6.67;100.00;100066.25;4997104;28;20184;-47
2023/01/08 06:51:14;;;;;;;4.03;3.63;;;;;;;6.65;100.00;100061.00;5001618;28;20188;-47
2023/01/08 06:53:39;;;;;;;4.30;3.90;;;;;;;6.71;100.00;100058.16;5001724;28;20224;-47
2023/01/08 06:56:08;;;;;;;3.47;3.17;;;;;;;6.72;100.00;100057.22;5005745;28;20210;-46
2023/01/08 06:58:34;;;;;;;3.75;3.45;;;;;;;6.73;100.00;100052.75;4997255;28;20185;-47
2023/01/08 07:00:59;;;;;;;3.70;3.40;;;;;;;6.78;100.00;100050.81;4997758;28;20204;-47
2023/01/08 07:03:26;;;;;;;3.90;3.60;;;;;;;6.78;100.00;100051.69;4998441;28;20690;-47
2023/01/08 07:05:52;;;;;;;4.22;3.83;;;;;;;6.85;100.00;100059.44;5000909;28;20197;-46
2023/01/08 07:08:17;;;;;;;4.40;3.80;;;;;;;6.87;100.00;100060.28;5008687;28;20197;-46
2023/01/08 07:10:44;;;;;;;4.40;3.47;;;;;;;6.89;100.00;100056.63;5008351;28;20276;-46
2023/01/08 07:13:11;;;;;;;4.03;3.72;;;;;;;6.89;100.00;100061.94;4992613;28;20267;-47
2023/01/08 07:15:38;;;;;;;4.85;3.85;;;;;;;6.90;100.00;100061.00;5004731;28;20312;-47
2023/01/08 07:18:08;;;;;;;5.22;3.97;;;;;;;6.93;100.00;100054.69;5001197;28;20176;-46
2023/01/08 07:20:34;;;;;;;4.20;3.80;;;;;;;6.95;100.00;100056.41;5000461;28;20201;-47
2023/01/08 07:23:05;;;;;;;5.30;4.32;;;;;;;6.97;100.00;100059.84;5003496;28;20606;-47
2023/01/08 07:25:31;;;;;;;4.82;4.03;;;;;;;7.01;100.00;100058.81;5000866;28;20782;-47
2023/01/08 07:27:57;;;;;;;4.40;4.00;;;;;;;7.01;100.00;100053.50;5000991;28;20284;-47
2023/01/08 07:30:23;;;;;;;4.38;3.35;;;;;;;7.01;100.00;100048.19;5000478;28;20195;-47
2023/01/08 07:32:49;;;;;;;4.25;3.85;;;;;;;7.05;100.00;100051.59;5003080;28;20173;-41
2023/01/08 07:35:14;;;;;;;4.25;3.75;;;;;;;7.06;100.00;100052.47;4999700;28;20297;-42
2023/01/08 07:37:41;;;;;;;4.22;3.80;;;;;;;7.06;100.00;100053.34;5010726;28;20602;-42
2023/01/08 07:40:08;;;;;;;3.50;3.25;;;;;;;7.08;100.00;100054.16;5000915;28;20181;-42
2023/01/08 07:42:34;;;;;;;3.67;3.40;;;;;;;7.09;100.00;100053.25;5003834;28;20233;-41
2023/01/08 07:44:59;;;;;;;4.07;3.75;;;;;;;7.06;100.00;100042.69;5002371;28;20283;-42
2023/01/08 07:47:25;;;;;;;3.60;3.30;;;;;;;7.07;100.00;100046.25;5004817;28;20200;-42
2023/01/08 07:49:50;;;;;;;3.83;3.45;;;;;;;7.06;100.00;100050.66;4995485;28;20235;-42
2023/01/08 07:52:16;;;;;;;3.80;3.50;;;;;;;7.06;100.00;100032.03;4998783;28;20204;-42
2023/01/08 07:54:41;;;;;;;3.13;2.92;;;;;;;7.00;100.00;100050.91;5002153;28;20208;-42
2023/01/08 07:57:07;;;;;;;4.03;3.63;;;;;;;6.97;100.00;100043.03;5003421;28;20212;-41
2023/01/08 07:59:32;;;;;;;3.67;3.38;;;;;;;6.97;100.00;100043.88;5008172;28;20532;-43
2023/01/08 08:01:58;;;;;;;3.40;3.10;;;;;;;6.99;100.00;100047.34;5002454;28;20174;-42
2023/01/08 08:04:23;;;;;;;3.95;3.63;;;;;;;6.95;100.00;100043.09;5007777;28;20300;-43
2023/01/08 08:06:49;;;;;;;3.75;3.45;;;;;;;6.95;100.00;100043.09;5000253;28;20469;-40
2023/01/08 08:09:15;;;;;;;4.07;3.75;;;;;;;6.96;100.00;100050.16;5000455;28;20201;-41
2023/01/08 08:11:41;;;;;;;6.30;4.00;;;;;;;6.92;100.00;100043.19;5003113;28;20181;-41
2023/01/08 08:14:07;;;;;;;3.95;3.65;;;;;;;6.91;100.00;100048.56;4998446;28;20205;-42
2023/01/08 08:16:33;;;;;;;5.75;4.43;;;;;;;6.86;100.00;100038.06;5000295;28;20193;-43
2023/01/08 08:18:58;;;;;;;5.97;4.32;;;;;;;6.86;100.00;100048.72;4999854;28;20262;-43
2023/01/08 08:21:24;;;;;;;5.72;4.30;;;;;;;6.87;100.00;100042.50;4998175;28;20212;-42
2023/01/08 08:23:50;;;;;;;4.50;4.05;;;;;;;6.79;100.00;100031.25;5000690;28;20208;-42
2023/01/08 08:26:16;;;;;;;6.43;4.82;;;;;;;6.72;100.00;100040.38;4999829;28;20279;-41
2023/01/08 08:28:41;;;;;;;5.05;4.55;;;;;;;6.74;100.00;100043.84;4999759;28;20236;-42
2023/01/08 08:31:07;;;;;;;4.50;3.95;;;;;;;6.71;100.00;100042.19;4998974;28;20185;-42
2023/01/08 08:33:32;;;;;;;6.07;5.05;;;;;;;6.71;100.00;100042.19;5002373;28;20172;-43
2023/01/08 08:35:58;;;;;;;4.63;4.15;;;;;;;6.71;100.00;100031.53;5005590;28;20193;-44
2023/01/08 08:38:25;;;;;;;5.03;4.53;;;;;;;6.73;100.00;100037.63;4999847;28;20263;-43
2023/01/08 08:40:51;;;;;;;6.65;4.60;;;;;;;6.75;100.00;100037.59;5000896;28;20185;-47
2023/01/08 08:43:17;;;;;;;7.15;4.75;;;;;;;6.76;100.00;100028.69;5001178;28;20205;-45
2023/01/08 08:45:42;;;;;;;4.45;4.05;;;;;;;6.76;100.00;100023.38;5001837;28;20246;-48
2023/01/08 08:48:10;;;;;;;5.47;4.57;;;;;;;6.79;100.00;100023.25;5000966;28;20176;-41
2023/01/08 08:50:36;;;;;;;4.85;4.40;;;;;;;6.81;100.00;100026.72;4999174;28;20323;-44
2023/01/08 08:53:03;;;;;;;5.07;4.63;;;;;;;6.84;100.00;100023.94;4998312;28;20178;-43
2023/01/08 08:55:29;;;;;;;5.30;4.43;;;;;;;6.85;100.00;100031.03;5008784;28;20344;-46
2023/01/08 08:58:05;;;;;;;5.03;4.35;;;;;;;6.93;100.00;100034.28;5000518;28;20272;-49
2023/01/08 09:00:30;;;;;;;4.40;4.00;;;;;;;6.93;100.00;100023.63;5003353;28;20181;-43
2023/01/08 09:02:56;;;;;;;4.90;4.38;;;;;;;6.92;100.00;100021.88;4998689;28;20255;-45
2023/01/08 09:05:21;;;;;;;6.45;4.55;;;;;;;6.95;100.00;100023.56;5001241;28;20221;-45
2023/01/08 09:07:47;;;;;;;7.80;4.60;;;;;;;6.98;100.00;100020.81;4999328;28;20301;-42
2023/01/08 09:10:12;;;;;;;7.07;4.53;;;;;;;6.99;100.00;100020.72;5001331;28;20678;-43
2023/01/08 09:12:38;;;;;;;5.30;4.80;;;;;;;7.03;100.00;100028.63;5001879;28;20430;-45
2023/01/08 09:15:04;;;;;;;4.90;4.43;;;;;;;7.00;100.00;100030.47;5002974;28;20205;-43
2023/01/08 09:17:29;;;;;;;6.45;4.22;;;;;;;6.99;100.00;100031.38;5002159;28;20729;-45
2023/01/08 09:19:55;;;;;;;5.55;4.63;;;;;;;7.03;100.00;100041.94;5004568;28;20204;-46
2023/01/08 09:22:21;;;;;;;6.05;4.35;;;;;;;6.98;100.00;100042.13;4996485;28;20621;-44
2023/01/08 09:24:46;;;;;;;5.03;4.40;;;;;;;6.96;100.00;100044.81;5001229;28;20223;-47
2023/01/08 09:27:12;;;;;;;6.05;4.45;;;;;;;6.94;100.00;100040.47;4998525;28;20199;-46
2023/01/08 09:29:38;;;;;;;5.63;4.70;;;;;;;6.93;100.00;100044.94;5000575;28;20216;-41
2023/01/08 09:32:07;;;;;;;6.72;4.70;;;;;;;6.94;100.00;100052.00;4996405;28;20780;-42
2023/01/08 09:34:34;;;;;;;9.38;4.97;;;;;;;6.90;100.00;100046.84;4999418;28;20569;-44
2023/01/08 09:37:00;;;;;;;5.40;4.82;;;;;;;6.92;100.00;100050.31;4997820;28;20267;-43
2023/01/08 09:39:26;;;;;;;5.55;4.88;;;;;;;6.87;100.00;100047.81;4998473;28;20263;-44
2023/01/08 09:41:52;;;;;;;6.50;5.00;;;;;;;6.88;100.00;100048.69;4997090;28;20192;-41
2023/01/08 09:44:23;;;;;;;5.50;4.72;;;;;;;6.89;100.00;100040.66;5005203;28;20761;-41
2023/01/08 09:46:49;;;;;;;5.43;4.93;;;;;;;6.88;100.00;100046.88;4997393;28;20184;-46
2023/01/08 09:49:28;;;;;;;5.55;5.05;;;;;;;6.87;100.00;100042.50;5007684;28;20226;-46
2023/01/08 09:51:54;;;;;;;5.32;4.82;;;;;;;6.85;100.00;100039.00;5000408;28;20195;-43
2023/01/08 09:54:23;;;;;;;5.85;5.10;;;;;;;6.90;100.00;100045.03;4998608;28;20753;-48
2023/01/08 09:56:49;;;;;;;6.18;5.10;;;;;;;6.89;100.00;100040.66;4997327;28;20295;-47
2023/01/08 09:59:18;;;;;;;6.13;5.28;;;;;;;6.94;100.00;100046.66;4998649;28;20798;-46
2023/01/08 10:01:45;;;;;;;6.55;5.43;;;;;;;6.98;100.00;100048.31;4998287;28;20268;-46
2023/01/08 10:04:23;;;;;;;5.60;4.88;;;;;;;6.96;100.00;100038.63;4994879;28;20217;-46
2023/01/08 10:07:22;;;;;;;7.40;6.30;;;;;;;6.95;100.00;100032.44;5002246;28;20197;-46
2023/01/08 10:09:49;;;;;;;6.20;5.60;;;;;;;6.95;100.00;100043.09;4996323;28;20204;-45
2023/01/08 10:12:19;;;;;;;6.78;6.07;;;;;;;6.97;100.00;100027.91;5005201;28;20668;-46
2023/01/08 10:14:48;;;;;;;9.23;5.55;;;;;;;6.99;100.00;100030.53;4999050;28;20211;-45
2023/01/08 10:17:45;;;;;;;6.05;5.18;;;;;;;6.96;100.00;100026.19;5003938;28;20181;-47
2023/01/08 10:20:13;;;;;;;7.90;5.10;;;;;;;6.96;100.00;100033.31;4997592;28;20184;-48
2023/01/08 10:22:38;;;;;;;6.70;5.95;;;;;;;7.01;100.00;100034.84;4979722;28;20246;-40
2023/01/08 10:25:08;;;;;;;6.28;5.47;;;;;;;7.08;100.00;100037.31;5000796;28;20198;-42
2023/01/08 10:27:44;;;;;;;5.50;5.00;;;;;;;7.08;100.00;100018.66;4999416;28;20232;-42
2023/01/08 10:30:19;;;;;;;6.50;5.22;;;;;;;7.05;100.00;100021.44;4993829;28;20656;-42
2023/01/08 10:32:47;;;;;;;7.22;5.18;;;;;;;7.12;100.00;100025.63;5002352;28;20222;-40
2023/01/08 10:35:19;;;;;;;6.43;5.65;;;;;;;7.13;100.00;100009.59;4996706;28;20221;-42
2023/01/08 10:37:46;;;;;;;6.28;5.25;;;;;;;7.16;100.00;100008.59;4998325;28;20189;-42
2023/01/08 10:40:33;;;;;;;7.13;5.30;;;;;;;7.16;100.00;99992.63;5004551;28;20675;-43
2023/01/08 10:43:07;;;;;;;5.90;5.20;;;;;;;7.20;100.00;99999.56;5000699;28;20245;-43
2023/01/08 10:45:32;;;;;;;8.15;5.35;;;;;;;7.21;100.00;99999.53;5003671;28;20274;-43
2023/01/08 10:48:00;;;;;;;9.88;5.47;;;;;;;7.20;100.00;100007.56;5002107;28;20185;-43
2023/01/08 10:50:32;;;;;;;6.88;5.28;;;;;;;7.25;100.00;100010.06;5004725;28;20583;-44
2023/01/08 10:53:00;;;;;;;7.80;4.60;;;;;;;7.29;100.00;100012.53;5003497;28;20181;-40
2023/01/08 10:55:30;;;;;;;7.13;4.88;;;;;;;7.27;100.00;100003.72;5004580;28;20244;-41
2023/01/08 10:58:16;;;;;;;5.78;5.28;;;;;;;7.28;100.00;100007.25;5008637;28;20195;-43
2023/01/08 11:00:41;;;;;;;5.55;5.05;;;;;;;7.29;100.00;100009.88;5005137;28;20200;-41
2023/01/08 11:03:19;;;;;;;6.32;5.72;;;;;;;7.26;100.00;100007.34;5001157;28;20201;-42
2023/01/08 11:05:45;;;;;;;5.95;5.32;;;;;;;7.30;100.00;99992.09;5001363;28;20239;-43
2023/01/08 11:08:19;;;;;;;5.82;5.22;;;;;;;7.30;100.00;99995.59;5005644;28;20176;-43
2023/01/08 11:10:58;;;;;;;6.05;5.43;;;;;;;7.32;100.00;99988.44;4996333;28;20184;-44
2023/01/08 11:13:25;;;;;;;5.70;5.18;;;;;;;7.32;100.00;99980.44;5002839;28;20303;-43
2023/01/08 11:16:07;;;;;;;8.55;5.35;;;;;;;7.37;100.00;99975.81;5000097;28;20209;-43
2023/01/08 11:19:02;;;;;;;5.60;5.07;;;;;;;7.40;100.00;99972.16;4997888;28;20197;-43
2023/01/08 11:21:30;;;;;;;5.72;5.22;;;;;;;7.41;100.00;99966.78;4991153;28;20823;-44
2023/01/08 11:24:20;;;;;;;7.68;5.32;;;;;;;7.53;100.00;99967.22;5000335;28;20582;-43
2023/01/08 11:26:56;;;;;;;6.88;5.35;;;;;;;7.46;100.00;99966.59;5001919;28;20173;-43
2023/01/08 11:29:27;;;;;;;7.05;5.53;;;;;;;7.53;100.00;99960.09;5002733;28;20716;-42
2023/01/08 11:32:08;;;;;;;6.07;5.22;;;;;;;7.54;100.00;99966.28;5006375;28;20169;-41